Decoded Metar for KDVN (DAVENPORT/QUAD C in IA, USA) (IATA:DVN) | Meteo·Mobile Aviation Weather
aviador You're here:

KDVN Decoded Metar

DAVENPORT/QUAD C in IA, USA
Report Time2019-06-18 14:52:00
UTC Time2019-06-18 15:02:37
Flight Rules vfr VFR
Wind250° at 03 kt
W.Decomp.*RWY 21: 2.3 kt HW 1.9 kt RCW
RWY 33: 0.5 kt HW 3 kt LCW
Visibility9999 m
Phenomena:N/A
Clouds:Few 018 Hf
Scattered 085 Hf
Expected CloudBase > 2,000 ft AGL from Temp-Dew spread
CeilingNone
Temp21°C (ISA +7)
Dew Point16°C (73% RH)
QNH1016 hPa
Density Alt1,775 ft
Elevation755 ft
Report Wrong Elevation
Raw Report
KDVN 181452Z AUTO 25003KT 10SM FEW018 SCT085 21/16 A2999 RMK AO2
SLP148 T02110156 55000=

Extra information for KDVN:More info

Metar Taf Metar & Taf Last 4 Metars F.Rules Stats Wind Profile Meteogram Temp Stats Airport Information Weather charts Add Link Nearby VenuesMetar ALERT Operation Metar Decoded Social comments

AIRNAV info for KDVN